createdAt,value
2023-10-07T00:02:18.212Z,5.87
2023-10-07T00:04:47.459Z,4.90
2023-10-07T00:07:16.395Z,5.37
2023-10-07T00:09:44.750Z,4.80
2023-10-07T00:12:17.531Z,5.70
2023-10-07T00:14:45.188Z,5.67
2023-10-07T00:17:19.740Z,5.73
2023-10-07T00:19:47.693Z,4.80
2023-10-07T00:22:16.257Z,5.50
2023-10-07T00:24:47.313Z,5.43
2023-10-07T00:27:27.912Z,5.50
2023-10-07T00:30:00.420Z,5.30
2023-10-07T00:32:29.827Z,4.40
2023-10-07T00:35:00.508Z,6.20
2023-10-07T00:37:27.802Z,5.30
2023-10-07T00:39:55.007Z,5.07
2023-10-07T00:42:23.878Z,5.07
2023-10-07T00:44:54.299Z,5.90
2023-10-07T00:47:23.006Z,4.40
2023-10-07T00:49:50.680Z,5.20
2023-10-07T00:52:30.554Z,6.17
2023-10-07T00:55:01.690Z,5.03
2023-10-07T00:57:34.824Z,4.97
2023-10-07T01:00:23.483Z,4.97
2023-10-07T01:02:55.162Z,5.20
2023-10-07T01:05:28.433Z,5.07
2023-10-07T01:07:56.668Z,4.93
2023-10-07T01:10:28.778Z,5.33
2023-10-07T01:13:02.461Z,4.90
2023-10-07T01:15:31.192Z,4.90
2023-10-07T01:18:05.228Z,5.70
2023-10-07T01:20:36.862Z,5.53
2023-10-07T01:23:08.656Z,5.57
2023-10-07T01:25:45.306Z,5.37
2023-10-07T01:28:16.376Z,6.00
2023-10-07T01:31:08.729Z,5.23
2023-10-07T01:33:47.580Z,5.63
2023-10-07T01:36:25.128Z,6.17
2023-10-07T01:38:53.838Z,5.60
2023-10-07T01:41:29.540Z,5.60
2023-10-07T01:44:06.090Z,5.80
2023-10-07T01:46:36.000Z,5.90
2023-10-07T01:49:18.169Z,5.40
2023-10-07T01:51:46.104Z,6.33
2023-10-07T01:54:13.298Z,6.03
2023-10-07T01:56:40.772Z,6.67
2023-10-07T01:59:15.915Z,6.33
2023-10-07T02:01:43.562Z,6.70
2023-10-07T02:04:25.749Z,7.70
2023-10-07T02:06:53.265Z,7.13
2023-10-07T02:09:28.713Z,6.50
2023-10-07T02:11:58.328Z,7.37
2023-10-07T02:14:26.947Z,5.90
2023-10-07T02:16:54.570Z,7.20
2023-10-07T02:19:31.388Z,6.13
2023-10-07T02:22:22.046Z,7.40
2023-10-07T02:24:56.966Z,6.77
2023-10-07T02:27:26.767Z,7.37
2023-10-07T02:29:57.846Z,7.87
2023-10-07T02:32:24.817Z,7.30
2023-10-07T02:34:56.149Z,7.83
2023-10-07T02:37:26.798Z,8.00
2023-10-07T02:40:12.918Z,7.47
2023-10-07T02:42:39.778Z,8.30
2023-10-07T02:45:27.568Z,7.33
2023-10-07T02:47:56.031Z,8.40
2023-10-07T02:50:26.977Z,8.27
2023-10-07T02:52:55.902Z,8.97
2023-10-07T02:55:22.783Z,7.87
2023-10-07T02:57:56.848Z,8.27
2023-10-07T03:00:39.857Z,9.37
2023-10-07T03:03:13.061Z,8.70
2023-10-07T03:05:58.725Z,8.30
2023-10-07T03:08:41.655Z,9.10
2023-10-07T03:11:24.835Z,9.10
2023-10-07T03:13:58.704Z,8.20
2023-10-07T03:16:26.314Z,9.33
2023-10-07T03:18:58.145Z,8.70
2023-10-07T03:21:44.948Z,9.17
2023-10-07T03:24:13.636Z,9.20
2023-10-07T03:26:46.927Z,9.33
2023-10-07T03:29:30.452Z,9.17
2023-10-07T03:32:00.991Z,10.50
2023-10-07T03:34:28.071Z,10.43
2023-10-07T03:37:09.906Z,10.07
2023-10-07T03:39:55.281Z,10.67
2023-10-07T03:42:22.336Z,9.90
2023-10-07T03:44:50.580Z,11.77
2023-10-07T03:47:17.626Z,10.27
2023-10-07T03:49:54.163Z,11.10
2023-10-07T03:52:22.086Z,10.03
2023-10-07T03:54:49.695Z,10.57
2023-10-07T03:57:20.070Z,11.93
2023-10-07T03:59:47.871Z,12.13
2023-10-07T04:02:35.094Z,11.80
2023-10-07T04:05:11.918Z,13.33
2023-10-07T04:07:39.918Z,13.00
2023-10-07T04:10:17.228Z,13.37
2023-10-07T04:12:47.824Z,14.07
2023-10-07T04:15:18.286Z,12.90
2023-10-07T04:17:46.491Z,14.10
2023-10-07T04:20:19.983Z,14.97
2023-10-07T04:22:59.603Z,13.40
2023-10-07T04:25:27.021Z,14.70
2023-10-07T04:27:54.827Z,14.30
2023-10-07T04:30:26.729Z,14.77
2023-10-07T04:33:01.927Z,15.33
2023-10-07T04:35:32.131Z,13.67
2023-10-07T04:38:10.641Z,13.87
2023-10-07T04:40:56.470Z,16.77
2023-10-07T04:43:38.870Z,16.50
2023-10-07T04:46:22.216Z,13.77
2023-10-07T04:48:56.531Z,14.23
2023-10-07T04:51:33.073Z,14.60
2023-10-07T04:54:03.411Z,14.20
2023-10-07T04:56:34.164Z,14.13
2023-10-07T04:59:07.770Z,14.80
2023-10-07T05:01:35.487Z,13.97
2023-10-07T05:04:10.968Z,14.80
2023-10-07T05:06:39.688Z,14.10
2023-10-07T05:09:10.805Z,14.70
2023-10-07T05:11:42.294Z,13.40
2023-10-07T05:14:10.367Z,14.70
2023-10-07T05:16:38.674Z,14.17
2023-10-07T05:19:10.701Z,14.47
2023-10-07T05:21:40.804Z,14.83
2023-10-07T05:24:11.549Z,14.47
2023-10-07T05:26:42.098Z,15.27
2023-10-07T05:29:14.223Z,15.63
2023-10-07T05:31:42.330Z,13.10
2023-10-07T05:34:09.925Z,16.40
2023-10-07T05:36:39.415Z,13.00
2023-10-07T05:39:09.206Z,12.90
2023-10-07T05:41:40.738Z,14.60
2023-10-07T05:44:08.911Z,15.90
2023-10-07T05:46:36.306Z,14.03
2023-10-07T05:49:03.811Z,14.93
2023-10-07T05:51:32.899Z,15.30
2023-10-07T05:53:59.860Z,13.53
2023-10-07T05:56:26.610Z,14.63
2023-10-07T05:58:53.599Z,15.27
2023-10-07T06:01:20.507Z,13.93
2023-10-07T06:03:47.856Z,13.73
2023-10-07T06:06:16.028Z,13.97
2023-10-07T06:08:43.337Z,14.57
2023-10-07T06:11:12.100Z,15.17
2023-10-07T06:13:41.792Z,15.23
2023-10-07T06:16:09.349Z,14.93
2023-10-07T06:18:36.430Z,14.80
2023-10-07T06:21:19.183Z,15.10
2023-10-07T06:23:46.367Z,15.17
2023-10-07T06:26:14.404Z,15.37
2023-10-07T06:28:45.686Z,14.70
2023-10-07T06:31:23.516Z,14.37
2023-10-07T06:34:01.081Z,15.47
2023-10-07T06:36:31.608Z,13.03
2023-10-07T06:39:00.296Z,12.93
2023-10-07T06:41:30.481Z,13.27
2023-10-07T06:44:00.898Z,12.73
2023-10-07T06:46:46.459Z,12.70
2023-10-07T06:49:20.878Z,10.70
2023-10-07T06:51:55.783Z,13.20
2023-10-07T06:54:27.717Z,11.87
2023-10-07T06:56:57.476Z,11.90
2023-10-07T06:59:29.779Z,10.37
2023-10-07T07:01:58.923Z,10.50
2023-10-07T07:04:26.972Z,9.77
2023-10-07T07:07:12.083Z,10.00
2023-10-07T07:09:47.597Z,10.67
2023-10-07T07:12:18.132Z,8.67
2023-10-07T07:14:53.287Z,10.67
2023-10-07T07:17:31.448Z,9.97
2023-10-07T07:20:13.658Z,8.77
2023-10-07T07:22:45.710Z,9.30
2023-10-07T07:25:38.451Z,10.67
2023-10-07T07:28:06.761Z,9.63
2023-10-07T07:30:36.404Z,10.80
2023-10-07T07:33:14.989Z,10.83
2023-10-07T07:35:46.447Z,9.40
2023-10-07T07:38:34.131Z,8.93
2023-10-07T07:41:08.270Z,8.43
2023-10-07T07:43:40.030Z,7.80
2023-10-07T07:46:27.655Z,7.77
2023-10-07T07:48:55.264Z,9.20
2023-10-07T07:51:26.126Z,7.83
2023-10-07T07:53:53.453Z,8.57
2023-10-07T07:56:21.348Z,6.87
2023-10-07T07:58:51.242Z,7.53
2023-10-07T08:01:30.082Z,7.50
2023-10-07T08:04:00.710Z,6.80
2023-10-07T08:06:27.873Z,7.23
2023-10-07T08:08:55.850Z,8.57
2023-10-07T08:11:23.376Z,7.50
2023-10-07T08:13:50.308Z,7.63
2023-10-07T08:16:19.845Z,8.47
2023-10-07T08:18:51.853Z,8.37
2023-10-07T08:21:18.752Z,8.40
2023-10-07T08:23:47.328Z,8.17
2023-10-07T08:26:21.626Z,9.00
2023-10-07T08:29:00.855Z,7.37
2023-10-07T08:31:44.469Z,7.30
2023-10-07T08:34:13.323Z,8.00
2023-10-07T08:36:44.641Z,7.20
2023-10-07T08:39:12.509Z,6.07
2023-10-07T08:41:48.732Z,6.63
2023-10-07T08:44:16.935Z,6.70
2023-10-07T08:46:54.479Z,6.07
2023-10-07T08:49:26.867Z,6.43
2023-10-07T08:51:58.390Z,6.17
2023-10-07T08:54:32.996Z,5.93
2023-10-07T08:57:10.859Z,6.17
2023-10-07T08:59:39.881Z,6.00
2023-10-07T09:02:14.377Z,7.50
2023-10-07T09:04:42.205Z,7.00
2023-10-07T09:07:12.832Z,7.77
2023-10-07T09:09:40.721Z,6.50
2023-10-07T09:12:16.021Z,6.80
2023-10-07T09:14:53.524Z,7.40
2023-10-07T09:17:25.076Z,6.60
2023-10-07T09:20:02.653Z,6.60
2023-10-07T09:22:37.657Z,6.40
2023-10-07T09:25:24.840Z,5.97
2023-10-07T09:28:02.480Z,5.60
2023-10-07T09:30:40.253Z,5.40
2023-10-07T09:33:16.204Z,5.00
2023-10-07T09:35:48.455Z,5.60
2023-10-07T09:38:34.854Z,6.37
2023-10-07T09:41:15.345Z,5.33
2023-10-07T09:43:52.070Z,4.73
2023-10-07T09:49:05.464Z,4.83
2023-10-07T09:51:48.680Z,4.97
2023-10-07T09:54:48.627Z,5.00
2023-10-07T09:57:50.849Z,4.60
2023-10-07T10:00:32.677Z,4.83
2023-10-07T10:03:15.510Z,5.00
2023-10-07T10:06:10.903Z,4.63
2023-10-07T10:09:34.036Z,4.80
2023-10-07T10:12:20.113Z,4.43
2023-10-07T10:15:15.798Z,4.33
2023-10-07T10:17:50.490Z,4.07
2023-10-07T10:20:19.899Z,4.30
2023-10-07T10:22:54.382Z,4.87
2023-10-07T10:25:37.475Z,4.10
2023-10-07T10:28:08.144Z,4.37
2023-10-07T10:30:45.341Z,3.70
2023-10-07T10:33:21.556Z,4.37
2023-10-07T10:35:59.316Z,4.60
2023-10-07T10:38:38.504Z,4.60
2023-10-07T10:41:06.285Z,4.47
2023-10-07T10:43:33.583Z,3.80
2023-10-07T10:46:07.835Z,4.43
2023-10-07T10:48:36.014Z,4.07
2023-10-07T10:51:08.485Z,4.00
2023-10-07T10:53:42.290Z,4.13
2023-10-07T10:56:10.170Z,4.10
2023-10-07T10:58:38.221Z,4.30
2023-10-07T11:01:09.007Z,4.60
2023-10-07T11:03:38.948Z,3.97
2023-10-07T11:06:07.426Z,3.40
2023-10-07T11:08:34.769Z,5.17
2023-10-07T11:11:02.982Z,4.87
2023-10-07T11:13:33.407Z,3.83
2023-10-07T11:16:12.738Z,4.40
2023-10-07T11:18:46.585Z,3.80
2023-10-07T11:21:17.083Z,3.93
2023-10-07T11:23:47.260Z,4.60
2023-10-07T11:26:15.345Z,4.00
2023-10-07T11:28:43.812Z,3.63
2023-10-07T11:31:12.099Z,4.20
2023-10-07T11:33:40.375Z,3.83
2023-10-07T11:36:08.747Z,3.70
2023-10-07T11:38:35.628Z,3.40
2023-10-07T11:41:05.762Z,3.90
2023-10-07T11:43:45.397Z,3.97
2023-10-07T11:46:14.763Z,4.50
2023-10-07T11:48:45.501Z,4.53
2023-10-07T11:51:13.175Z,3.90
2023-10-07T11:53:43.016Z,3.93
2023-10-07T11:56:13.094Z,4.27
2023-10-07T11:58:40.609Z,3.70
2023-10-07T12:01:09.149Z,3.80
2023-10-07T12:03:36.170Z,3.60
2023-10-07T12:06:06.646Z,3.90
2023-10-07T12:08:36.582Z,3.50
2023-10-07T12:11:05.618Z,4.57
2023-10-07T12:13:33.758Z,4.23
2023-10-07T12:16:04.863Z,4.80
2023-10-07T12:18:32.677Z,4.10
2023-10-07T12:21:02.950Z,4.73
2023-10-07T12:23:31.938Z,3.83
2023-10-07T12:25:58.819Z,4.33
2023-10-07T12:28:25.798Z,4.40
2023-10-07T12:30:53.360Z,4.60
2023-10-07T12:33:35.088Z,4.30
2023-10-07T12:36:11.516Z,4.30
2023-10-07T12:38:38.872Z,4.30
2023-10-07T12:41:08.316Z,4.67
2023-10-07T12:43:41.258Z,4.30
2023-10-07T12:46:12.292Z,5.17
2023-10-07T12:48:42.081Z,4.73
2023-10-07T12:51:09.841Z,3.70
2023-10-07T12:53:37.169Z,3.97
2023-10-07T12:56:20.332Z,4.60
2023-10-07T12:58:47.687Z,4.90
2023-10-07T13:01:15.410Z,4.33
2023-10-07T13:03:46.381Z,4.67
2023-10-07T13:06:17.127Z,4.23
2023-10-07T13:08:44.939Z,4.23
2023-10-07T13:11:15.569Z,3.90
2023-10-07T13:13:46.736Z,4.73
2023-10-07T13:16:15.075Z,5.37
2023-10-07T13:18:43.099Z,4.87
2023-10-07T13:21:19.992Z,4.57
2023-10-07T13:23:47.483Z,4.80
2023-10-07T13:26:16.066Z,4.70
2023-10-07T13:28:43.195Z,4.50
2023-10-07T13:31:11.374Z,5.17
2023-10-07T13:33:38.865Z,4.60
2023-10-07T13:36:09.695Z,4.70
2023-10-07T13:38:36.637Z,4.70
2023-10-07T13:41:07.329Z,4.87
2023-10-07T13:43:34.405Z,5.37
2023-10-07T13:46:10.186Z,4.50
2023-10-07T13:48:38.047Z,5.20
2023-10-07T13:51:06.817Z,5.03
2023-10-07T13:53:53.353Z,4.77
2023-10-07T13:56:46.545Z,4.60
2023-10-07T13:59:13.754Z,6.40
2023-10-07T14:01:41.239Z,5.17
2023-10-07T14:04:08.245Z,5.03
2023-10-07T14:06:37.403Z,4.57
2023-10-07T14:09:10.046Z,5.27
2023-10-07T14:11:38.136Z,4.53
2023-10-07T14:14:07.352Z,4.80
2023-10-07T14:16:35.582Z,4.77
2023-10-07T14:19:02.674Z,4.27
2023-10-07T14:21:32.255Z,4.40
2023-10-07T14:24:04.659Z,5.00
2023-10-07T14:26:36.076Z,4.40
2023-10-07T14:29:07.106Z,4.53
2023-10-07T14:31:35.828Z,4.43
2023-10-07T14:34:04.617Z,4.50
2023-10-07T14:36:31.427Z,4.60
2023-10-07T14:38:58.204Z,4.63
2023-10-07T14:41:27.778Z,5.80
2023-10-07T14:43:54.643Z,5.20
2023-10-07T14:46:23.328Z,4.40
2023-10-07T14:48:50.375Z,4.90
2023-10-07T14:51:20.046Z,5.73
2023-10-07T14:53:47.948Z,5.30
2023-10-07T14:56:26.816Z,4.80
2023-10-07T14:58:53.801Z,5.40
2023-10-07T15:01:24.082Z,5.00
2023-10-07T15:03:52.765Z,5.80
2023-10-07T15:06:22.811Z,5.10
2023-10-07T15:08:52.998Z,5.20
2023-10-07T15:11:22.277Z,5.23
2023-10-07T15:13:53.102Z,5.03
2023-10-07T15:16:22.233Z,4.73
2023-10-07T15:18:56.909Z,4.83
2023-10-07T15:21:25.244Z,4.43
2023-10-07T15:23:52.244Z,5.07
2023-10-07T15:26:19.662Z,4.90
2023-10-07T15:28:49.055Z,5.40
2023-10-07T15:31:23.769Z,5.43
2023-10-07T15:33:58.895Z,4.90
2023-10-07T15:36:26.495Z,4.80
2023-10-07T15:38:53.805Z,4.30
2023-10-07T15:41:21.383Z,5.73
2023-10-07T15:43:48.549Z,4.93
2023-10-07T15:46:17.657Z,4.40
2023-10-07T15:48:44.880Z,4.53
2023-10-07T15:51:12.311Z,4.70
2023-10-07T15:53:39.258Z,4.83
2023-10-07T15:56:11.145Z,5.00
2023-10-07T15:58:38.765Z,4.70
2023-10-07T16:01:10.615Z,5.47
2023-10-07T16:03:40.576Z,4.67
2023-10-07T16:06:08.746Z,5.87
2023-10-07T16:08:40.394Z,6.00
2023-10-07T16:11:09.477Z,4.97
2023-10-07T16:13:36.841Z,5.20
2023-10-07T16:16:06.620Z,4.60
2023-10-07T16:18:41.271Z,4.90
2023-10-07T16:21:12.754Z,5.50
2023-10-07T16:23:44.589Z,4.67
2023-10-07T16:26:16.059Z,4.93
2023-10-07T16:28:47.469Z,5.20
2023-10-07T16:31:14.515Z,4.80
2023-10-07T16:33:42.401Z,5.27
2023-10-07T16:36:09.440Z,6.27
2023-10-07T16:38:38.925Z,5.40
2023-10-07T16:41:07.814Z,5.53
2023-10-07T16:43:37.275Z,5.40
2023-10-07T16:46:06.879Z,6.67
2023-10-07T16:48:36.036Z,6.10
2023-10-07T16:51:08.474Z,6.03
2023-10-07T16:53:38.327Z,6.13
2023-10-07T16:56:10.285Z,5.43
2023-10-07T16:58:37.294Z,5.80
2023-10-07T17:01:07.868Z,4.67
2023-10-07T17:03:35.291Z,5.93
2023-10-07T17:06:05.074Z,5.67
2023-10-07T17:08:32.900Z,5.27
2023-10-07T17:11:01.473Z,6.03
2023-10-07T17:13:29.244Z,5.67
2023-10-07T17:16:00.639Z,5.30
2023-10-07T17:18:28.634Z,5.20
2023-10-07T17:21:00.299Z,5.43
2023-10-07T17:23:28.422Z,5.47
2023-10-07T17:25:56.255Z,5.53
2023-10-07T17:28:23.801Z,5.23
2023-10-07T17:30:51.238Z,5.80
2023-10-07T17:33:22.375Z,5.90
2023-10-07T17:35:49.859Z,6.40
2023-10-07T17:38:19.157Z,6.00
2023-10-07T17:40:49.495Z,6.50
2023-10-07T17:43:17.191Z,5.90
2023-10-07T17:45:45.175Z,5.80
2023-10-07T17:48:12.767Z,6.03
2023-10-07T17:50:41.452Z,5.33
2023-10-07T17:53:10.809Z,6.40
2023-10-07T17:55:37.919Z,5.77
2023-10-07T17:58:05.776Z,5.07
2023-10-07T18:00:32.806Z,5.30
2023-10-07T18:03:00.863Z,5.90
2023-10-07T18:05:28.699Z,6.03
2023-10-07T18:07:56.771Z,5.10
2023-10-07T18:10:26.188Z,5.37
2023-10-07T18:12:53.758Z,5.30
2023-10-07T18:15:21.450Z,5.93
2023-10-07T18:17:49.895Z,5.67
2023-10-07T18:20:17.472Z,5.67
2023-10-07T18:22:50.965Z,7.10
2023-10-07T18:25:22.918Z,5.13
2023-10-07T18:27:54.420Z,5.50
2023-10-07T18:30:22.775Z,6.00
2023-10-07T18:32:50.167Z,5.97
2023-10-07T18:35:17.328Z,5.50
2023-10-07T18:37:44.660Z,6.03
2023-10-07T18:40:12.963Z,4.77
2023-10-07T18:42:40.713Z,6.50
2023-10-07T18:45:12.214Z,6.60
2023-10-07T18:47:39.964Z,6.37
2023-10-07T18:50:09.095Z,6.30
2023-10-07T18:52:36.218Z,5.10
2023-10-07T18:55:03.883Z,6.27
2023-10-07T18:57:31.729Z,5.70
2023-10-07T19:00:01.898Z,5.77
2023-10-07T19:02:30.125Z,6.07
2023-10-07T19:04:57.875Z,5.73
2023-10-07T19:07:25.593Z,6.30
2023-10-07T19:09:54.787Z,5.87
2023-10-07T19:12:24.017Z,6.57
2023-10-07T19:14:54.716Z,5.97
2023-10-07T19:17:24.686Z,6.67
2023-10-07T19:19:52.326Z,5.90
2023-10-07T19:22:20.090Z,5.60
2023-10-07T19:24:50.131Z,6.30
2023-10-07T19:27:18.910Z,6.23
2023-10-07T19:29:46.707Z,5.00
2023-10-07T19:32:16.630Z,5.83
2023-10-07T19:34:46.450Z,5.50
2023-10-07T19:37:16.377Z,5.33
2023-10-07T19:39:44.900Z,5.13
2023-10-07T19:42:12.939Z,6.20
2023-10-07T19:44:39.906Z,5.87
2023-10-07T19:47:07.788Z,6.17
2023-10-07T19:49:38.274Z,5.70
2023-10-07T19:52:07.391Z,6.60
2023-10-07T19:54:34.463Z,5.50
2023-10-07T19:57:01.280Z,5.90
2023-10-07T19:59:28.206Z,6.00
2023-10-07T20:01:55.061Z,6.10
2023-10-07T20:04:22.019Z,5.77
2023-10-07T20:06:48.860Z,6.30
2023-10-07T20:09:19.330Z,6.27
2023-10-07T20:11:48.772Z,5.70
2023-10-07T20:14:16.269Z,6.10
2023-10-07T20:16:44.221Z,5.80
2023-10-07T20:19:12.404Z,5.57
2023-10-07T20:21:39.685Z,6.00
2023-10-07T20:24:06.900Z,4.90
2023-10-07T20:26:33.997Z,5.40
2023-10-07T20:29:01.561Z,5.17
2023-10-07T20:31:28.440Z,5.80
2023-10-07T20:33:55.249Z,6.23
2023-10-07T20:36:23.891Z,6.00
2023-10-07T20:38:52.593Z,5.90
2023-10-07T20:41:20.710Z,5.53
2023-10-07T20:43:47.624Z,5.90
2023-10-07T20:46:14.478Z,5.60
2023-10-07T20:48:41.526Z,6.23
2023-10-07T20:51:11.209Z,5.30
2023-10-07T20:53:40.809Z,5.50
2023-10-07T20:56:09.555Z,5.90
2023-10-07T20:58:36.865Z,6.00
2023-10-07T21:01:07.172Z,5.83
2023-10-07T21:03:34.666Z,6.00
2023-10-07T21:06:04.499Z,5.80
2023-10-07T21:08:31.795Z,6.20
2023-10-07T21:10:59.966Z,5.90
2023-10-07T21:13:26.896Z,5.67
2023-10-07T21:15:57.136Z,5.87
2023-10-07T21:18:25.824Z,5.70
2023-10-07T21:20:52.676Z,5.23
2023-10-07T21:23:19.586Z,6.20
2023-10-07T21:25:48.923Z,6.00
2023-10-07T21:28:17.042Z,6.90
2023-10-07T21:30:47.506Z,5.67
2023-10-07T21:33:15.896Z,6.27
2023-10-07T21:35:43.804Z,5.70
2023-10-07T21:38:13.219Z,5.73
2023-10-07T21:40:42.067Z,6.17
2023-10-07T21:43:10.033Z,6.00
2023-10-07T21:45:38.275Z,6.03
2023-10-07T21:48:10.381Z,5.07
2023-10-07T21:50:38.550Z,5.90
2023-10-07T21:53:06.114Z,4.87
2023-10-07T21:55:34.560Z,6.10
2023-10-07T21:58:02.996Z,5.97
2023-10-07T22:00:30.832Z,6.00
2023-10-07T22:03:00.970Z,6.20
2023-10-07T22:05:31.815Z,6.27
2023-10-07T22:08:00.346Z,6.37
2023-10-07T22:10:35.384Z,6.43
2023-10-07T22:13:14.612Z,6.10
2023-10-07T22:15:52.135Z,5.27
2023-10-07T22:18:20.874Z,5.60
2023-10-07T22:20:50.694Z,5.10
2023-10-07T22:23:20.870Z,5.87
2023-10-07T22:25:48.173Z,6.03
2023-10-07T22:28:16.786Z,5.53
2023-10-07T22:30:50.819Z,6.00
2023-10-07T22:33:21.542Z,5.60
2023-10-07T22:35:49.232Z,6.70
2023-10-07T22:38:20.880Z,5.60
2023-10-07T22:40:50.999Z,5.50
2023-10-07T22:43:19.119Z,5.27
2023-10-07T22:45:52.333Z,6.77
2023-10-07T22:48:22.080Z,5.70
2023-10-07T22:50:55.868Z,6.23
2023-10-07T22:53:30.802Z,5.23
2023-10-07T22:56:05.607Z,5.63
2023-10-07T22:58:39.848Z,5.97
2023-10-07T23:01:17.246Z,5.63
2023-10-07T23:03:58.596Z,5.60
2023-10-07T23:06:40.768Z,5.30
2023-10-07T23:09:08.460Z,6.50
2023-10-07T23:11:45.654Z,6.40
2023-10-07T23:14:19.333Z,6.80
2023-10-07T23:16:53.914Z,6.53
2023-10-07T23:19:25.265Z,5.60
2023-10-07T23:21:55.554Z,5.80
2023-10-07T23:24:36.692Z,5.77
2023-10-07T23:27:05.778Z,5.20
2023-10-07T23:29:45.588Z,5.30
2023-10-07T23:32:24.899Z,5.20
2023-10-07T23:35:20.976Z,4.90
2023-10-07T23:38:09.128Z,6.13
2023-10-07T23:40:36.741Z,4.93
2023-10-07T23:43:10.759Z,5.63
2023-10-07T23:45:41.416Z,6.30
2023-10-07T23:48:19.949Z,5.80
2023-10-07T23:50:49.939Z,5.70
2023-10-07T23:53:23.453Z,5.40
2023-10-07T23:56:05.328Z,5.60
2023-10-07T23:58:44.378Z,4.90
